Data for 11/01/2007

Time Sea-Level Adjusted Pressure Absolute Pressure Temperature Relative Humidity Dew Point   
(mb) (inHg) (mb) (inHg) (C) (F) (%) (C) (F)
00:05 1022 30.18 851 25.13 2.9 37.2 56 -4.9 23.1
00:10 1022 30.18 851 25.13 2.8 37 56 -5 22.9
00:15 1022 30.18 851 25.13 2.7 36.9 58 -4.8 23.3
00:20 1022 30.18 851 25.13 2.4 36.4 58 -5 22.9
00:25 1022 30.18 851 25.13 2.5 36.5 57 -5.1 22.9
00:30 1022 30.18 851 25.13 2.6 36.6 58 -4.8 23.3
00:35 1022 30.18 851 25.13 2.5 36.5 58 -4.8 23.3
00:40 1022 30.18 851 25.13 2.5 36.5 57 -5.1 22.9
00:45 1021 30.15 851 25.13 2.7 36.8 57 -4.9 23.1
00:50 1021 30.15 851 25.13 2.6 36.7 56 -5.2 22.6
00:55 1021 30.15 850 25.1 3.1 37.5 55 -5.2 22.7
01:00 1021 30.15 850 25.1 3 37.5 55 -5 22.9
01:05 1021 30.15 850 25.1 2.9 37.2 55 -5.3 22.5
01:10 1021 30.15 850 25.1 3 37.4 56 -5 23
01:15 1021 30.15 850 25.1 2.7 36.8 57 -4.9 23.1
01:20 1021 30.15 850 25.1 2.3 36.2 59 -4.9 23.1
01:25 1021 30.15 850 25.1 2.2 35.9 57 -5.4 22.3
01:30 1021 30.15 850 25.1 2.3 36.2 57 -5.4 22.3
01:35 1021 30.15 850 25.1 2.4 36.4 57 -5.1 22.7
01:40 1021 30.15 850 25.1 2.1 35.8 59 -5.1 22.9
01:45 1021 30.15 850 25.1 2 35.7 60 -4.9 23.1
01:50 1021 30.15 850 25.1 1.8 35.2 60 -5.1 22.8
01:55 1021 30.15 850 25.1 1.8 35.2 60 -5.1 22.9
02:00 1021 30.15 850 25.1 1.9 35.5 59 -5.2 22.7
02:05 1021 30.15 850 25.1 1.9 35.4 60 -5.1 22.9
02:10 1021 30.15 850 25.1 1.9 35.4 60 -5.2 22.7
02:15 1021 30.15 850 25.1 1.8 35.2 61 -4.9 23.2
02:20 1021 30.15 850 25.1 1.4 34.6 62 -5.1 22.9
02:25 1021 30.15 850 25.1 1.2 34.2 64 -4.9 23.2
02:30 1020 30.12 850 25.1 0.9 33.7 64 -5.2 22.7
02:35 1020 30.12 850 25.1 1 33.8 63 -5.3 22.5
02:40 1020 30.12 850 25.1 1.1 34 62 -5.3 22.4
02:45 1020 30.12 850 25.1 1.2 34.1 62 -5.3 22.4
02:50 1020 30.12 850 25.1 1.5 34.7 60 -5.5 22.2
02:55 1020 30.12 850 25.1 1.6 34.9 60 -5.3 22.5
03:00 1020 30.12 850 25.1 1.4 34.6 61 -5.3 22.4
03:05 1020 30.12 849 25.07 1.2 34.2 62 -5.3 22.5
03:10 1020 30.12 850 25.1 1.3 34.4 59 -5.8 21.5
03:15 1020 30.12 849 25.07 2.1 35.8 56 -5.7 21.7
03:20 1020 30.12 849 25.07 2.3 36.1 58 -5.2 22.7
03:25 1020 30.12 849 25.07 2.2 35.9 59 -5.1 22.9
03:30 1020 30.12 849 25.07 1.8 35.2 61 -5 23
03:35 1020 30.12 849 25.07 1.1 34 65 -4.8 23.4
03:40 1020 30.12 849 25.07 1 33.9 65 -4.8 23.3
03:45 1020 30.12 849 25.07 0.6 33.1 67 -4.7 23.5
03:50 1020 30.12 849 25.07 0.4 32.8 68 -4.7 23.5
03:55 1020 30.12 849 25.07 0.3 32.6 69 -4.8 23.4
04:00 1020 30.12 849 25.07 0.3 32.6 69 -4.8 23.4
04:05 1020 30.12 849 25.07 0.9 33.6 65 -5 23
04:10 1020 30.12 849 25.07 1.5 34.8 61 -5.2 22.7
04:15 1020 30.12 849 25.07 1.4 34.6 62 -5 22.9
04:20 1020 30.12 849 25.07 1.5 34.7 62 -5 23
04:25 1020 30.12 849 25.07 1.3 34.4 61 -5.4 22.3
04:30 1020 30.12 849 25.07 1.6 34.8 62 -4.9 23.1
04:35 1020 30.12 849 25.07 1.2 34.2 63 -5.1 22.8
04:40 1020 30.12 849 25.07 1.5 34.7 60 -5.4 22.3
04:45 1020 30.12 849 25.07 1.7 35.1 61 -5 23
04:50 1020 30.12 849 25.07 1.5 34.7 60 -5.5 22.1
04:55 1020 30.12 849 25.07 2.2 35.9 57 -5.6 22
05:00 1020 30.12 849 25.07 2.7 36.8 55 -5.4 22.4
05:05 1020 30.12 849 25.07 3 37.4 55 -5.3 22.5
05:10 1020 30.12 849 25.07 3.2 37.8 55 -5.1 22.9
05:15 1020 30.12 849 25.07 3.6 38.5 53 -5 23
05:20 1020 30.12 849 25.07 3.6 38.4 54 -4.8 23.3
05:25 1020 30.12 849 25.07 3.7 38.6 55 -4.6 23.8
05:30 1020 30.12 849 25.07 3.6 38.5 55 -4.6 23.7
05:35 1020 30.12 849 25.07 3.5 38.3 56 -4.4 24.1
05:40 1020 30.12 849 25.07 3.5 38.3 55 -4.7 23.5
05:45 1020 30.12 849 25.07 3.7 38.7 55 -4.6 23.8
05:50 1020 30.12 849 25.07 3.9 39 55 -4.3 24.3
05:55 1020 30.12 849 25.07 3.8 38.9 56 -4.3 24.3
06:00 1020 30.12 849 25.07 3.7 38.7 56 -4.3 24.2
06:05 1020 30.12 849 25.07 3.8 38.8 56 -4.3 24.3
06:10 1020 30.12 849 25.07 3.8 38.8 56 -4.2 24.5
06:15 1020 30.12 849 25.07 3.8 38.8 56 -4.2 24.5
06:20 1020 30.12 849 25.07 3.7 38.7 56 -4.3 24.2
06:25 1020 30.12 849 25.07 3.8 38.8 55 -4.3 24.2
06:30 1020 30.12 849 25.07 3.8 38.9 55 -4.3 24.2
06:35 1020 30.12 849 25.07 3.7 38.7 56 -4.3 24.2
06:40 1020 30.12 849 25.07 3.3 38 59 -3.9 25.1
06:45 1019 30.09 849 25.07 2.2 36 62 -4.3 24.3
06:50 1019 30.09 849 25.07 2.3 36.2 60 -4.6 23.6
06:55 1019 30.09 849 25.07 2.4 36.4 61 -4.4 24.2
07:00 1019 30.09 849 25.07 2.2 36 61 -4.6 23.7
07:05 1019 30.09 849 25.07 2.2 36 60 -4.8 23.4
07:10 1019 30.09 849 25.07 2.2 36 59 -4.9 23.2
07:15 1019 30.09 848 25.04 2.4 36.2 59 -4.8 23.3
07:20 1019 30.09 848 25.04 2.7 36.9 57 -5 22.9
07:25 1019 30.09 848 25.04 2.6 36.8 60 -4.3 24.3
07:30 1019 30.09 848 25.04 2.1 35.7 62 -4.5 23.9
07:35 1019 30.09 848 25.04 2 35.6 63 -4.4 24.1
07:40 1019 30.09 848 25.04 1.4 34.5 67 -4.2 24.5
07:45 1019 30.09 848 25.04 1 33.9 65 -4.8 23.4
07:50 1019 30.09 848 25.04 1.4 34.5 62 -5.2 22.6
07:55 1019 30.09 848 25.04 2.2 36 59 -5.1 22.9
08:00 1019 30.09 849 25.07 2.5 36.5 58 -4.9 23.1
08:05 1019 30.09 849 25.07 2.7 36.9 55 -5.4 22.3
08:10 1019 30.09 849 25.07 3.2 37.8 52 -5.7 21.8
08:15 1019 30.09 849 25.07 3.7 38.6 49 -6.1 21
08:20 1019 30.09 849 25.07 4.3 39.7 46 -6.3 20.6
08:25 1019 30.09 849 25.07 4.9 40.8 43 -6.5 20.2
08:30 1019 30.09 849 25.07 5.1 41.2 45 -5.9 21.4
08:35 1020 30.12 849 25.07 5 41 46 -5.6 21.9
08:40 1020 30.12 849 25.07 4.8 40.6 48 -5.4 22.3
08:45 1020 30.12 849 25.07 4.6 40.3 48 -5.6 21.9
08:50 1019 30.09 849 25.07 4.7 40.5 47 -5.7 21.7
08:55 1019 30.09 849 25.07 5.2 41.3 44 -6.2 20.9
09:00 1019 30.09 849 25.07 5.4 41.8 46 -5.2 22.7
09:05 1019 30.09 849 25.07 5.1 41.1 46 -5.6 22
09:10 1019 30.09 849 25.07 5.4 41.6 45 -5.7 21.7
09:15 1020 30.12 849 25.07 5.5 41.9 44 -5.7 21.8
09:20 1020 30.12 849 25.07 5.5 41.9 45 -5.4 22.3
09:25 1020 30.12 849 25.07 5.4 41.8 46 -5.2 22.7
09:30 1020 30.12 849 25.07 5.4 41.8 47 -5 23
09:35 1020 30.12 849 25.07 5.4 41.7 47 -4.9 23.1
09:40 1020 30.12 849 25.07 5.3 41.6 48 -4.8 23.4
09:45 1020 30.12 849 25.07 5.4 41.7 48 -4.8 23.4
09:50 1020 30.12 849 25.07 5.4 41.8 49 -4.5 24
09:55 1020 30.12 849 25.07 5.4 41.6 49 -4.4 24.1
10:00 1020 30.12 849 25.07 5.3 41.6 49 -4.5 23.9
10:05 1020 30.12 849 25.07 5.4 41.8 49 -4.3 24.3
10:10 1020 30.12 849 25.07 5.5 42 48 -4.5 23.8
10:15 1020 30.12 849 25.07 5.7 42.3 51 -3.6 25.4
10:20 1020 30.12 849 25.07 5.2 41.3 55 -3 26.5
10:25 1020 30.12 849 25.07 4.9 40.9 55 -3.4 25.9
10:30 1020 30.12 849 25.07 5.2 41.3 53 -3.6 25.5
10:35 1020 30.12 849 25.07 5.4 41.8 52 -3.6 25.5
10:40 1020 30.12 849 25.07 5.4 41.7 52 -3.7 25.4
10:45 1020 30.12 849 25.07 5.5 41.9 51 -3.7 25.3
10:50 1019 30.09 849 25.07 5.9 42.6 47 -4.6 23.7
10:55 1020 30.12 849 25.07 6 42.9 47 -4.3 24.2
11:00 1019 30.09 849 25.07 6 42.8 48 -4.2 24.4
11:05 1019 30.09 849 25.07 6 42.9 46 -4.8 23.4
11:10 1019 30.09 849 25.07 6 42.9 45 -5 23.1
11:15 1019 30.09 848 25.04 6.2 43.2 44 -5 23.1
11:20 1019 30.09 848 25.04 6.9 44.4 43 -4.8 23.4
11:25 1019 30.09 848 25.04 7.6 45.6 42 -4.5 23.9
11:30 1019 30.09 848 25.04 7.5 45.4 43 -4.2 24.4
11:35 1019 30.09 848 25.04 7.2 44.9 44 -4.1 24.6
11:40 1019 30.09 848 25.04 7.6 45.8 40 -5.1 22.7
11:45 1019 30.09 848 25.04 8.6 47.4 38 -5.1 22.9
11:50 1019 30.09 848 25.04 9.6 49.2 32 -6.5 20.4
11:55 1019 30.09 848 25.04 10.2 50.3 31 -6.4 20.5
12:00 1019 30.09 848 25.04 10.6 51.1 29 -6.8 19.8
12:05 1018 30.06 848 25.04 10.8 51.5 27 -7.4 18.6
12:10 1018 30.06 848 25.04 10.8 51.4 29 -6.6 20.2
12:15 1018 30.06 847 25.01 11 51.7 29 -6.2 20.9
12:20 1018 30.06 847 25.01 11.1 52.1 28 -6.8 19.7
12:25 1018 30.06 847 25.01 11.4 52.6 27 -6.9 19.6
12:30 1018 30.06 847 25.01 11.6 52.9 27 -6.6 20.2
12:35 1018 30.06 847 25.01 11.8 53.3 25 -7.7 18.2
12:40 1018 30.06 847 25.01 11 51.8 23 -9.4 15
12:45 1018 30.06 847 25.01 10.8 51.4 23 -9.3 15.3
12:50 1018 30.06 847 25.01 10.9 51.6 22 -9.8 14.4
12:55 1018 30.06 847 25.01 10.7 51.3 23 -9.8 14.3
13:00 1018 30.06 847 25.01 11 51.7 22 -9.9 14.2
13:05 1018 30.06 847 25.01 11.2 52.1 22 -9.5 14.9
13:10 1017 30.03 847 25.01 11.3 52.4 22 -9.9 14.2
13:15 1017 30.03 847 25.01 11.4 52.5 22 -9.7 14.6
13:20 1017 30.03 847 25.01 11.8 53.2 22 -9.3 15.2
13:25 1017 30.03 847 25.01 11.9 53.5 21 -9.9 14.3
13:30 1017 30.03 847 25.01 12 53.6 21 -9.4 15
13:35 1017 30.03 847 25.01 12.3 54.1 20 -10.1 13.8
13:40 1017 30.03 847 25.01 12.3 54.1 20 -10.1 13.8
13:45 1017 30.03 847 25.01 12 53.7 20 -10.4 13.2
13:50 1017 30.03 847 25.01 11.9 53.3 20 -10.2 13.7
13:55 1017 30.03 846 24.98 11.7 53 20 -10.5 13.1
14:00 1017 30.03 846 24.98 12.1 53.7 21 -9.4 15.1
14:05 1017 30.03 846 24.98 12 53.6 19 -10.9 12.5
14:10 1017 30.03 846 24.98 11.8 53.2 21 -9.8 14.4
14:15 1017 30.03 846 24.98 11.9 53.4 21 -9.5 14.8
14:20 1017 30.03 846 24.98 12 53.7 22 -9.2 15.5
14:25 1017 30.03 846 24.98 12.3 54.1 22 -9 15.8
14:30 1017 30.03 846 24.98 11.7 53.1 22 -9.1 15.6
14:35 1017 30.03 846 24.98 11.7 53 23 -8.8 16.2
14:40 1017 30.03 846 24.98 11.7 53.1 22 -9.5 14.8
14:45 1017 30.03 846 24.98 11.9 53.5 23 -8.7 16.4
14:50 1017 30.03 846 24.98 11.9 53.5 22 -8.8 16.1
14:55 1017 30.03 846 24.98 12 53.6 21 -9.9 14.1
15:00 1017 30.03 846 24.98 12 53.5 19 -10.8 12.5
15:05 1017 30.03 846 24.98 12.1 53.7 21 -9.6 14.7
15:10 1017 30.03 846 24.98 12.1 53.7 21 -9.9 14.2
15:15 1017 30.03 846 24.98 11.8 53.3 22 -9.1 15.5
15:20 1017 30.03 846 24.98 12.1 53.7 21 -9.3 15.2
15:25 1017 30.03 846 24.98 12.2 54 21 -9.2 15.4
15:30 1017 30.03 846 24.98 12.2 53.9 21 -9.4 15.1
15:35 1017 30.03 846 24.98 12 53.6 21 -9.6 14.8
15:40 1017 30.03 846 24.98 12 53.5 21 -9.9 14.1
15:45 1017 30.03 846 24.98 12.1 53.9 21 -9.8 14.3
15:50 1017 30.03 846 24.98 12.4 54.3 20 -10.1 13.8
15:55 1017 30.03 846 24.98 12.6 54.6 20 -10 14
16:00 1017 30.03 846 24.98 12.3 54.1 21 -9.4 15
16:05 1017 30.03 846 24.98 12 53.7 21 -9.4 15
16:10 1017 30.03 846 24.98 12.3 54.1 21 -9.6 14.7
16:15 1017 30.03 846 24.98 12.5 54.5 19 -10.4 13.3
16:20 1017 30.03 846 24.98 12.7 54.9 20 -9.5 14.9
16:25 1017 30.03 846 24.98 12.9 55.1 19 -10 14
16:30 1017 30.03 846 24.98 13 55.5 15 -12.7 9.1
16:35 1017 30.03 846 24.98 12.8 55 16 -12.2 10.1
16:40 1017 30.03 846 24.98 12.7 54.8 17 -11.5 11.3
16:45 1017 30.03 846 24.98 12.6 54.6 17 -11.8 10.7
16:50 1017 30.03 846 24.98 12.5 54.5 17 -11.7 10.9
16:55 1017 30.03 847 25.01 12.3 54.1 17 -12.3 9.8
17:00 1017 30.03 847 25.01 12.1 53.8 18 -11.6 11.2
17:05 1017 30.03 847 25.01 11.6 52.9 19 -11 12.1
17:10 1017 30.03 847 25.01 11.2 52.2 20 -11.1 12.1
17:15 1017 30.03 847 25.01 11 51.9 18 -12.4 9.7
17:20 1017 30.03 847 25.01 10.9 51.7 18 -12.7 9.2
17:25 1018 30.06 847 25.01 10.9 51.7 18 -12.5 9.4
17:30 1018 30.06 847 25.01 11 51.7 19 -11.9 10.5
17:35 1018 30.06 847 25.01 10.9 51.7 20 -11 12.2
17:40 1018 30.06 847 25.01 10.7 51.3 21 -10.9 12.3
17:45 1018 30.06 847 25.01 10 50.1 22 -10.8 12.6
17:50 1018 30.06 847 25.01 9.6 49.4 23 -10.6 13
17:55 1018 30.06 847 25.01 9.3 48.8 24 -10.4 13.4
18:00 1018 30.06 847 25.01 9.1 48.3 25 -10.1 13.8
18:05 1018 30.06 848 25.04 8.8 47.8 26 -9.9 14.2
18:10 1018 30.06 848 25.04 8.3 47 27 -9.5 14.8
18:15 1019 30.09 848 25.04 7.9 46.2 28 -9.4 15
18:20 1019 30.09 848 25.04 7.6 45.7 30 -8.9 15.9
18:25 1019 30.09 848 25.04 7.2 44.9 32 -8.3 17
18:30 1019 30.09 848 25.04 6.8 44.3 34 -8.1 17.3
18:35 1019 30.09 848 25.04 6.5 43.7 34 -8.2 17.2
18:40 1019 30.09 848 25.04 6.2 43.2 35 -8.2 17.3
18:45 1019 30.09 849 25.07 5.9 42.6 35 -8.4 16.8
18:50 1020 30.12 849 25.07 5.8 42.4 35 -8.7 16.4
18:55 1020 30.12 849 25.07 5.7 42.2 34 -8.9 16
19:00 1020 30.12 849 25.07 5.6 42.1 34 -8.9 15.9
19:05 1020 30.12 849 25.07 5.5 41.9 34 -9 15.8
19:10 1020 30.12 849 25.07 5.4 41.7 35 -8.9 16.1
19:15 1020 30.12 850 25.1 5.3 41.5 35 -9 15.8
19:20 1021 30.15 850 25.1 5.1 41.2 35 -9.1 15.7
19:25 1021 30.15 850 25.1 5.1 41.1 35 -9.1 15.6
19:30 1021 30.15 850 25.1 4.8 40.7 36 -9.1 15.7
19:35 1021 30.15 850 25.1 4.5 40.1 37 -9.1 15.7
19:40 1021 30.15 850 25.1 4.2 39.6 36 -9.5 14.9
19:45 1021 30.15 851 25.13 4.3 39.7 35 -9.7 14.5
19:50 1021 30.15 851 25.13 4.2 39.5 35 -9.9 14.2
19:55 1021 30.15 851 25.13 4.1 39.5 36 -9.7 14.5
20:00 1022 30.18 851 25.13 4 39.3 35 -10 13.9
20:05 1021 30.15 851 25.13 4 39.2 37 -9.4 15
20:10 1021 30.15 851 25.13 3.7 38.7 35 -10.3 13.5
20:15 1021 30.15 851 25.13 4.2 39.5 34 -10.3 13.5
20:20 1021 30.15 851 25.13 4.3 39.8 33 -10.8 12.6
20:25 1022 30.18 851 25.13 4.8 40.6 31 -11.1 12
20:30 1022 30.18 851 25.13 5 41.1 30 -11.3 11.7
20:35 1022 30.18 851 25.13 5.1 41.2 30 -10.9 12.4
20:40 1022 30.18 851 25.13 5 41 31 -10.8 12.6
20:45 1022 30.18 851 25.13 4.9 40.8 31 -10.7 12.8
20:50 1022 30.18 851 25.13 4.7 40.4 33 -10.2 13.6
20:55 1022 30.18 851 25.13 4.3 39.7 33 -10.5 13.1
21:00 1022 30.18 851 25.13 4.1 39.4 35 -10.2 13.7
21:05 1022 30.18 851 25.13 3.8 38.8 33 -11 12.3
21:10 1022 30.18 851 25.13 3.9 39 34 -10.4 13.2
21:15 1022 30.18 852 25.16 3.8 38.8 35 -10.4 13.2
21:20 1023 30.21 852 25.16 3.7 38.6 35 -10.3 13.5
21:25 1023 30.21 852 25.16 3.6 38.4 36 -10.2 13.7
21:30 1023 30.21 852 25.16 3.3 37.9 39 -9.3 15.2
21:35 1023 30.21 852 25.16 2.9 37.2 40 -9.5 15
21:40 1023 30.21 852 25.16 2.8 37 40 -9.5 14.8
21:45 1023 30.21 852 25.16 2.7 36.9 40 -9.6 14.7
21:50 1023 30.21 852 25.16 2.8 37 39 -9.7 14.6
21:55 1023 30.21 852 25.16 2.7 36.8 40 -9.6 14.7
22:00 1023 30.21 852 25.16 2.5 36.6 42 -9.2 15.4
22:05 1023 30.21 852 25.16 1.9 35.4 43 -9.5 15
22:10 1023 30.21 852 25.16 1.7 35 41 -10.3 13.4
22:15 1023 30.21 852 25.16 2.3 36.1 39 -10.4 13.2
22:20 1023 30.21 853 25.19 2.2 36 39 -10.2 13.6
22:25 1023 30.21 853 25.19 2 35.7 40 -10.1 13.8
22:30 1024 30.24 853 25.19 1.9 35.4 41 -10.1 13.9
22:35 1024 30.24 853 25.19 1.8 35.2 41 -10.2 13.6
22:40 1024 30.24 853 25.19 1.7 35.1 42 -10 14
22:45 1024 30.24 853 25.19 1.8 35.2 41 -10.1 13.9
22:50 1024 30.24 853 25.19 1.8 35.3 41 -10.1 13.8
22:55 1024 30.24 853 25.19 1.8 35.2 41 -10.2 13.7
23:00 1024 30.24 853 25.19 1.8 35.2 41 -10.1 13.7
23:05 1024 30.24 853 25.19 1.5 34.6 44 -9.4 15
23:10 1024 30.24 853 25.19 0.8 33.4 44 -10.1 13.9
23:15 1024 30.24 853 25.19 0.7 33.2 46 -9.8 14.4
23:20 1024 30.24 853 25.19 0.7 33.3 46 -9.7 14.6
23:25 1024 30.24 853 25.19 0.8 33.5 44 -10 14
23:30 1024 30.24 853 25.19 0.8 33.5 43 -10.3 13.4
23:35 1024 30.24 854 25.22 1.2 34.1 42 -10.4 13.3
23:40 1024 30.24 854 25.22 1.4 34.5 41 -10.4 13.3
23:45 1024 30.24 854 25.22 1 33.8 45 -9.7 14.5
23:50 1024 30.24 854 25.22 0.5 32.8 46 -9.8 14.4
23:55 1025 30.27 854 25.22 0.3 32.5 47 -9.8 14.4
24:00 1025 30.27 854 25.22 0.1 32.2 50 -9 15.7